createdAt,value
2023-03-14T00:00:29.786Z,12.93
2023-03-14T00:05:31.394Z,12.92
2023-03-14T00:10:32.974Z,12.99
2023-03-14T00:15:35.526Z,13.05
2023-03-14T00:20:37.177Z,13.08
2023-03-14T00:25:38.786Z,13.08
2023-03-14T00:30:40.407Z,12.98
2023-03-14T00:35:44.445Z,12.89
2023-03-14T00:40:46.151Z,12.68
2023-03-14T00:45:48.020Z,12.47
2023-03-14T00:50:50.027Z,12.39
2023-03-14T00:55:51.576Z,12.28
2023-03-14T01:00:53.115Z,12.00
2023-03-14T01:05:54.848Z,11.80
2023-03-14T01:10:56.520Z,11.76
2023-03-14T01:16:08.568Z,11.63
2023-03-14T01:21:27.700Z,11.64
2023-03-14T01:26:31.753Z,11.59
2023-03-14T01:31:33.684Z,11.51
2023-03-14T01:36:36.242Z,11.58
2023-03-14T01:41:38.055Z,11.65
2023-03-14T01:46:41.333Z,11.66
2023-03-14T01:52:04.656Z,11.72
2023-03-14T01:57:12.496Z,11.69
2023-03-14T02:02:16.506Z,11.71
2023-03-14T02:07:31.633Z,11.73
2023-03-14T02:12:43.643Z,11.83
2023-03-14T02:17:50.416Z,11.80
2023-03-14T02:23:48.767Z,11.73
2023-03-14T02:28:51.681Z,11.76
2023-03-14T02:33:53.709Z,11.70
2023-03-14T02:39:14.988Z,11.64
2023-03-14T02:44:19.238Z,11.64
2023-03-14T02:49:21.030Z,11.60
2023-03-14T02:54:22.674Z,11.61
2023-03-14T02:59:25.389Z,11.60
2023-03-14T03:04:31.298Z,11.58
2023-03-14T03:09:32.875Z,11.57
2023-03-14T03:14:34.737Z,11.53
2023-03-14T03:19:39.488Z,11.46
2023-03-14T03:24:41.118Z,11.45
2023-03-14T03:29:42.761Z,11.50
2023-03-14T03:34:44.619Z,11.35
2023-03-14T03:39:46.345Z,11.39
2023-03-14T03:44:49.376Z,11.38
2023-03-14T03:49:51.056Z,11.36
2023-03-14T03:54:52.640Z,11.39
2023-03-14T03:59:54.221Z,11.31
2023-03-14T04:04:55.751Z,11.34
2023-03-14T04:09:57.448Z,11.28
2023-03-14T04:15:19.596Z,11.16
2023-03-14T04:20:25.026Z,11.23
2023-03-14T04:25:27.313Z,11.22
2023-03-14T04:30:32.082Z,11.18
2023-03-14T04:35:56.321Z,11.21
2023-03-14T04:40:58.311Z,11.19
2023-03-14T04:46:05.535Z,11.22
2023-03-14T04:51:07.958Z,11.27
2023-03-14T04:56:10.252Z,11.27
2023-03-14T05:01:14.345Z,11.30
2023-03-14T05:06:35.896Z,11.26
2023-03-14T05:11:43.387Z,11.21
2023-03-14T05:16:56.756Z,11.22
2023-03-14T05:22:13.683Z,11.22
2023-03-14T05:27:27.099Z,11.04
2023-03-14T05:32:47.732Z,10.99
2023-03-14T05:38:00.069Z,11.00
2023-03-14T05:43:10.403Z,11.04
2023-03-14T05:48:30.460Z,11.11
2023-03-14T05:53:50.639Z,11.11
2023-03-14T05:59:09.952Z,11.11
2023-03-14T06:04:27.526Z,11.11
2023-03-14T06:09:33.555Z,11.13
2023-03-14T06:14:37.066Z,11.19
2023-03-14T06:19:38.772Z,11.19
2023-03-14T06:24:40.387Z,11.16
2023-03-14T06:29:42.030Z,11.14
2023-03-14T06:34:43.616Z,11.15
2023-03-14T06:39:45.374Z,11.12
2023-03-14T06:44:55.971Z,11.11
2023-03-14T06:49:58.519Z,11.07
2023-03-14T06:55:00.430Z,11.00
2023-03-14T07:00:04.028Z,10.99
2023-03-14T07:05:06.300Z,10.96
2023-03-14T07:10:09.805Z,11.04
2023-03-14T07:15:18.700Z,11.05
2023-03-14T07:20:24.710Z,11.04
2023-03-14T07:25:27.502Z,11.04
2023-03-14T07:30:29.305Z,11.03
2023-03-14T07:35:32.782Z,11.01
2023-03-14T07:40:34.417Z,11.02
2023-03-14T07:45:43.228Z,11.05
2023-03-14T07:50:45.249Z,10.97
2023-03-14T07:55:47.249Z,10.98
2023-03-14T08:00:49.478Z,11.03
2023-03-14T08:05:51.864Z,11.03
2023-03-14T08:10:53.455Z,11.09
2023-03-14T08:15:55.081Z,11.10
2023-03-14T08:20:56.787Z,11.09
2023-03-14T08:25:58.418Z,11.10
2023-03-14T08:31:01.073Z,11.12
2023-03-14T08:36:02.875Z,11.07
2023-03-14T08:41:05.164Z,11.17
2023-03-14T08:46:06.905Z,11.13
2023-03-14T08:51:09.587Z,11.27
2023-03-14T08:56:11.294Z,11.28
2023-03-14T09:01:13.087Z,11.30
2023-03-14T09:06:14.737Z,11.33
2023-03-14T09:11:16.386Z,11.42
2023-03-14T09:16:18.012Z,11.50
2023-03-14T09:21:19.575Z,11.64
2023-03-14T09:26:21.225Z,11.65
2023-03-14T09:31:22.757Z,11.65
2023-03-14T09:36:24.331Z,11.64
2023-03-14T09:41:30.113Z,11.75
2023-03-14T09:46:36.356Z,11.89
2023-03-14T09:51:38.697Z,11.92
2023-03-14T09:56:40.350Z,11.99
2023-03-14T10:01:41.954Z,12.06
2023-03-14T10:06:43.553Z,12.14
2023-03-14T10:11:45.225Z,12.18
2023-03-14T10:16:47.221Z,12.21
2023-03-14T10:21:55.625Z,12.31
2023-03-14T10:27:05.610Z,12.19
2023-03-14T10:32:10.966Z,12.32
2023-03-14T10:37:23.795Z,12.46
2023-03-14T10:42:31.131Z,12.58
2023-03-14T10:47:33.276Z,12.53
2023-03-14T10:52:51.270Z,12.77
2023-03-14T10:57:58.920Z,12.92
2023-03-14T11:03:11.190Z,13.05
2023-03-14T11:08:32.481Z,13.10
2023-03-14T11:13:49.759Z,13.07
2023-03-14T11:19:21.129Z,13.06
2023-03-14T11:24:36.209Z,13.03
2023-03-14T11:29:42.285Z,12.94
2023-03-14T11:34:55.080Z,13.08
2023-03-14T11:40:30.585Z,13.14
2023-03-14T11:45:36.992Z,13.13
2023-03-14T11:50:40.842Z,13.26
2023-03-14T11:55:43.834Z,13.28
2023-03-14T12:00:48.144Z,13.04
2023-03-14T12:06:28.191Z,13.06
2023-03-14T12:11:53.810Z,13.23
2023-03-14T12:17:05.257Z,13.17
2023-03-14T12:22:09.667Z,13.08
2023-03-14T12:27:34.522Z,13.13
2023-03-14T12:32:36.191Z,13.06
2023-03-14T12:37:43.020Z,13.04
2023-03-14T12:42:59.128Z,13.19
2023-03-14T12:48:11.762Z,13.32
2023-03-14T12:53:38.478Z,13.36
2023-03-14T12:58:48.819Z,13.41
2023-03-14T13:03:57.754Z,13.47
2023-03-14T13:08:59.409Z,13.54
2023-03-14T13:14:00.968Z,13.60
2023-03-14T13:19:14.348Z,13.55
2023-03-14T13:24:26.322Z,13.37
2023-03-14T13:29:32.265Z,13.40
2023-03-14T13:34:35.840Z,13.43
2023-03-14T13:39:41.439Z,13.39
2023-03-14T13:44:43.280Z,13.37
2023-03-14T13:49:46.213Z,13.27
2023-03-14T13:54:47.860Z,12.87
2023-03-14T14:00:19.148Z,12.56
2023-03-14T14:05:20.745Z,12.43
2023-03-14T14:10:22.492Z,12.28
2023-03-14T14:15:27.886Z,12.11
2023-03-14T14:20:38.675Z,12.03
2023-03-14T14:25:40.910Z,12.02
2023-03-14T14:30:42.747Z,11.95
2023-03-14T14:36:01.578Z,11.77
2023-03-14T14:41:03.930Z,11.65
2023-03-14T14:46:08.901Z,11.59
2023-03-14T14:51:10.555Z,11.46
2023-03-14T14:56:18.902Z,11.34
2023-03-14T15:01:24.422Z,11.23
2023-03-14T15:06:29.877Z,11.30
2023-03-14T15:11:31.352Z,11.05
2023-03-14T15:16:33.114Z,10.81
2023-03-14T15:21:34.812Z,10.69
2023-03-14T15:26:36.480Z,10.40
2023-03-14T15:31:38.194Z,10.16
2023-03-14T15:36:39.818Z,10.16
2023-03-14T15:41:41.332Z,9.89
2023-03-14T15:46:42.861Z,9.67
2023-03-14T15:51:44.332Z,9.30
2023-03-14T15:56:45.952Z,9.32
2023-03-14T16:01:49.058Z,9.40
2023-03-14T16:06:50.756Z,9.38
2023-03-14T16:11:52.321Z,9.32
2023-03-14T16:16:55.857Z,9.33
2023-03-14T16:21:58.019Z,9.35
2023-03-14T16:26:59.577Z,9.22
2023-03-14T16:32:01.157Z,9.14
2023-03-14T16:37:02.847Z,9.10
2023-03-14T16:42:04.399Z,9.06
2023-03-14T16:47:10.035Z,8.99
2023-03-14T16:52:12.520Z,8.97
2023-03-14T16:57:14.291Z,8.88
2023-03-14T17:02:16.094Z,8.97
2023-03-14T17:07:17.655Z,8.77
2023-03-14T17:12:19.246Z,8.71
2023-03-14T17:17:20.925Z,8.84
2023-03-14T17:22:25.151Z,8.81
2023-03-14T17:27:28.977Z,8.75
2023-03-14T17:32:30.606Z,8.68
2023-03-14T17:37:32.528Z,8.68
2023-03-14T17:42:34.127Z,8.66
2023-03-14T17:47:35.655Z,8.62
2023-03-14T17:52:37.668Z,8.70
2023-03-14T17:57:40.205Z,8.68
2023-03-14T18:02:42.080Z,8.79
2023-03-14T18:07:43.905Z,8.80
2023-03-14T18:12:45.636Z,8.79
2023-03-14T18:17:47.238Z,8.86
2023-03-14T18:22:48.793Z,8.84
2023-03-14T18:27:50.322Z,8.82
2023-03-14T18:32:51.898Z,8.82
2023-03-14T18:37:53.709Z,8.80
2023-03-14T18:42:55.898Z,8.86
2023-03-14T18:47:58.229Z,8.79
2023-03-14T18:52:59.760Z,8.79
2023-03-14T18:58:01.908Z,8.73
2023-03-14T19:03:04.521Z,8.67
2023-03-14T19:08:06.072Z,8.65
2023-03-14T19:13:07.603Z,8.70
2023-03-14T19:18:10.872Z,8.78
2023-03-14T19:23:14.086Z,8.86
2023-03-14T19:28:15.721Z,8.90
2023-03-14T19:33:18.369Z,8.95
2023-03-14T19:38:19.877Z,8.99
2023-03-14T19:43:21.371Z,8.99
2023-03-14T19:48:29.938Z,9.01
2023-03-14T19:53:31.741Z,9.00
2023-03-14T19:58:34.417Z,8.98
2023-03-14T20:03:36.667Z,9.01
2023-03-14T20:08:39.267Z,8.92
2023-03-14T20:13:40.966Z,8.93
2023-03-14T20:18:42.689Z,9.04
2023-03-14T20:23:44.453Z,9.05
2023-03-14T20:28:47.197Z,9.06
2023-03-14T20:33:51.291Z,9.11
2023-03-14T20:38:53.601Z,9.18
2023-03-14T20:43:55.107Z,9.24
2023-03-14T20:48:56.602Z,9.29
2023-03-14T20:53:58.312Z,9.29
2023-03-14T20:58:59.813Z,9.29
2023-03-14T21:04:01.395Z,9.26
2023-03-14T21:09:05.455Z,9.27
2023-03-14T21:14:07.188Z,9.25
2023-03-14T21:19:08.751Z,9.28
2023-03-14T21:24:10.316Z,9.29
2023-03-14T21:29:11.816Z,9.32
2023-03-14T21:34:13.466Z,9.31
2023-03-14T21:39:15.238Z,9.32
2023-03-14T21:44:18.968Z,9.33
2023-03-14T21:49:20.495Z,9.31
2023-03-14T21:54:22.076Z,9.30
2023-03-14T21:59:24.042Z,9.28
2023-03-14T22:04:25.901Z,9.29
2023-03-14T22:09:28.502Z,9.28
2023-03-14T22:14:30.069Z,9.29
2023-03-14T22:19:35.024Z,9.28
2023-03-14T22:24:36.552Z,9.26
2023-03-14T22:29:38.036Z,9.27
2023-03-14T22:34:39.641Z,9.25
2023-03-14T22:39:41.310Z,9.18
2023-03-14T22:44:42.846Z,9.01
2023-03-14T22:49:44.485Z,8.87
2023-03-14T22:54:46.070Z,8.73
2023-03-14T22:59:47.604Z,8.68
2023-03-14T23:04:49.326Z,8.53
2023-03-14T23:09:51.124Z,8.08
2023-03-14T23:14:53.932Z,7.77
2023-03-14T23:19:55.676Z,7.70
2023-03-14T23:24:57.217Z,7.62
2023-03-14T23:29:59.164Z,7.56
2023-03-14T23:35:00.714Z,7.47
2023-03-14T23:40:03.528Z,7.38
2023-03-14T23:45:05.497Z,7.22
2023-03-14T23:50:07.542Z,7.14
2023-03-14T23:55:09.491Z,7.02
